createdAt,value
2018-04-02T15:03:59.800Z,2.60
2018-04-02T15:06:26.481Z,3.30
2018-04-02T15:08:53.615Z,2.53
2018-04-02T15:11:20.758Z,2.92
2018-04-02T15:13:47.532Z,3.03
2018-04-02T15:16:14.134Z,2.22
2018-04-02T15:18:41.417Z,1.12
2018-04-02T15:21:08.745Z,1.87
2018-04-02T15:23:36.660Z,1.73
2018-04-02T15:26:03.516Z,3.05
2018-04-02T15:28:30.535Z,3.40
2018-04-02T15:30:58.019Z,3.80
2018-04-02T15:33:24.887Z,1.70
2018-04-02T15:35:51.857Z,2.90
2018-04-02T15:38:19.784Z,5.22
2018-04-02T15:40:46.780Z,8.82
2018-04-02T15:43:13.978Z,5.40
2018-04-02T15:45:41.556Z,4.82
2018-04-02T15:48:08.583Z,2.92
2018-04-02T15:50:36.261Z,1.62
2018-04-02T15:53:03.396Z,4.07
2018-04-02T15:55:31.010Z,1.98
2018-04-02T15:57:58.886Z,2.05
2018-04-02T16:00:27.197Z,2.25
2018-04-02T16:02:55.028Z,5.35
2018-04-02T16:05:22.319Z,3.65
2018-04-02T16:07:49.528Z,2.85
2018-04-02T16:10:16.475Z,2.42
2018-04-02T16:12:43.424Z,3.12
2018-04-02T16:15:11.022Z,3.70
2018-04-02T16:17:38.419Z,2.37
2018-04-02T16:20:05.997Z,3.42
2018-04-02T16:22:35.838Z,4.57
2018-04-02T16:25:04.357Z,4.18
2018-04-02T16:27:32.058Z,4.55
2018-04-02T16:29:58.813Z,3.40
2018-04-02T16:32:31.328Z,4.18
2018-04-02T16:35:00.042Z,4.28
2018-04-02T16:37:28.819Z,5.43
2018-04-02T16:39:56.257Z,2.45
2018-04-02T16:42:25.190Z,2.87
2018-04-02T16:44:52.585Z,2.58
2018-04-02T16:47:21.325Z,3.95
2018-04-02T16:49:51.387Z,15.85
2018-04-02T16:52:19.593Z,4.37
2018-04-02T16:54:48.320Z,10.00
2018-04-02T16:57:16.793Z,4.07
2018-04-02T16:59:45.292Z,5.62
2018-04-02T17:02:12.897Z,5.22
2018-04-02T17:04:41.282Z,8.50
2018-04-02T17:07:08.650Z,6.32
2018-04-02T17:09:35.513Z,9.23
2018-04-02T17:12:02.657Z,5.57
2018-04-02T17:14:30.695Z,5.03
2018-04-02T17:16:57.752Z,5.18
2018-04-02T17:21:59.307Z,5.00
2018-04-02T17:24:28.012Z,8.10
2018-04-02T17:26:56.719Z,6.00
2018-04-02T17:29:23.935Z,8.93
2018-04-02T17:31:51.042Z,9.90
2018-04-02T17:34:18.457Z,18.12
2018-04-02T17:36:48.765Z,22.10
2018-04-02T17:39:15.764Z,19.92
2018-04-02T17:41:42.684Z,24.65
2018-04-02T17:44:09.929Z,19.08
2018-04-02T17:46:36.915Z,21.70
2018-04-02T17:49:05.441Z,27.17
2018-04-02T17:51:32.871Z,24.63
2018-04-02T17:54:01.088Z,21.08
2018-04-02T17:56:28.087Z,21.92
2018-04-02T17:58:55.528Z,22.98
2018-04-02T18:01:23.448Z,39.03
2018-04-02T18:03:51.382Z,28.60
2018-04-02T18:06:18.346Z,24.30
2018-04-02T18:08:45.528Z,24.05
2018-04-02T18:11:13.275Z,21.40
2018-04-02T18:13:40.970Z,23.02
2018-04-02T18:16:08.052Z,20.88
2018-04-02T18:18:37.303Z,26.30
2018-04-02T18:21:07.019Z,27.90
2018-04-02T18:23:34.673Z,31.85
2018-04-02T18:26:02.535Z,34.08
2018-04-02T18:28:29.929Z,26.58
2018-04-02T18:30:58.461Z,34.95
2018-04-02T18:33:25.335Z,28.77
2018-04-02T18:35:52.364Z,38.90
2018-04-02T18:38:21.185Z,32.97
2018-04-02T18:40:50.157Z,34.55
2018-04-02T18:43:17.073Z,36.03
2018-04-02T18:45:46.324Z,37.03
2018-04-02T18:48:13.990Z,31.90
2018-04-02T18:50:41.692Z,22.85
2018-04-02T18:53:08.662Z,24.25
2018-04-02T18:55:36.440Z,22.52
2018-04-02T18:58:05.283Z,28.05
2018-04-02T19:00:32.920Z,30.25
2018-04-02T19:03:02.428Z,23.40
2018-04-02T19:05:30.030Z,20.70
2018-04-02T19:07:57.181Z,23.77
2018-04-02T19:10:26.522Z,28.85
2018-04-02T19:12:54.989Z,29.77
2018-04-02T19:15:22.173Z,24.08
2018-04-02T19:17:49.381Z,29.45
2018-04-02T19:20:18.279Z,29.20
2018-04-02T19:22:47.736Z,25.17
2018-04-02T19:25:14.667Z,26.80
2018-04-02T19:27:42.146Z,10.88
2018-04-02T19:30:09.374Z,13.73
2018-04-02T19:32:37.220Z,11.82
2018-04-02T19:35:04.278Z,19.92
2018-04-02T19:37:31.340Z,39.22
2018-04-02T19:39:59.470Z,35.17
2018-04-02T19:42:26.381Z,37.80
2018-04-02T19:44:53.237Z,39.88
2018-04-02T19:47:20.129Z,38.28
2018-04-02T19:49:47.920Z,34.67
2018-04-02T19:52:14.641Z,34.97
2018-04-02T19:54:42.006Z,32.50
2018-04-02T19:57:08.783Z,33.85
2018-04-02T19:59:35.385Z,30.80
2018-04-02T20:02:02.208Z,35.05
2018-04-02T20:04:28.949Z,34.42
2018-04-02T20:06:56.056Z,39.83
2018-04-02T20:09:22.984Z,32.47
2018-04-02T20:11:49.695Z,35.25
2018-04-02T20:14:17.188Z,30.05
2018-04-02T20:16:44.628Z,29.15
2018-04-02T20:19:13.021Z,28.38
2018-04-02T20:21:41.441Z,31.05
2018-04-02T20:24:08.746Z,29.45
2018-04-02T20:26:36.605Z,26.90
2018-04-02T20:29:03.538Z,27.30
2018-04-02T20:31:30.875Z,27.23
2018-04-02T20:33:58.119Z,30.95
2018-04-02T20:36:25.315Z,32.53
2018-04-02T20:38:52.386Z,28.87
2018-04-02T20:41:19.241Z,31.80
2018-04-02T20:43:45.642Z,33.42
2018-04-02T20:46:12.598Z,31.73
2018-04-02T20:48:39.485Z,31.27
2018-04-02T20:51:06.451Z,35.20
2018-04-02T20:53:33.327Z,30.37
2018-04-02T20:56:00.515Z,32.65
2018-04-02T20:58:27.772Z,32.90
2018-04-02T21:00:55.694Z,36.75
2018-04-02T21:03:23.926Z,45.60
2018-04-02T21:05:51.038Z,38.78
2018-04-02T21:08:22.429Z,36.95
2018-04-02T21:10:52.522Z,40.63
2018-04-02T21:13:21.627Z,36.65
2018-04-02T21:15:49.458Z,39.33
2018-04-02T21:18:17.670Z,39.83
2018-04-02T21:20:45.213Z,37.67
2018-04-02T21:23:12.875Z,42.70
2018-04-02T21:25:41.894Z,39.00
2018-04-02T21:28:09.315Z,42.30
2018-04-02T21:30:37.996Z,35.75
2018-04-02T21:33:05.240Z,38.92
2018-04-02T21:35:32.386Z,40.30
2018-04-02T21:37:59.887Z,39.15
2018-04-02T21:40:28.596Z,39.88
2018-04-02T21:42:55.775Z,32.58
2018-04-02T21:45:22.612Z,33.60
2018-04-02T21:47:49.281Z,32.15
2018-04-02T21:50:19.610Z,31.08
2018-04-02T21:52:46.879Z,29.35
2018-04-02T21:55:13.770Z,25.90
2018-04-02T21:57:40.663Z,33.00
2018-04-02T22:00:08.919Z,35.15
2018-04-02T22:02:36.491Z,39.53
2018-04-02T22:05:03.324Z,30.75
2018-04-02T22:07:32.041Z,34.03
2018-04-02T22:09:59.746Z,29.83
2018-04-02T22:12:27.039Z,32.42
2018-04-02T22:14:54.975Z,29.55
2018-04-02T22:17:22.674Z,31.00
2018-04-02T22:19:50.361Z,30.10
2018-04-02T22:22:17.870Z,31.10
2018-04-02T22:24:45.385Z,33.47
2018-04-02T22:27:12.756Z,33.22
2018-04-02T22:29:40.168Z,30.90
2018-04-02T22:32:08.429Z,33.22
2018-04-02T22:34:36.524Z,30.37
2018-04-02T22:37:04.184Z,37.45
2018-04-02T22:39:32.218Z,28.70
2018-04-02T22:41:59.742Z,28.65
2018-04-02T22:44:27.273Z,29.33
2018-04-02T22:46:55.269Z,28.85
2018-04-02T22:49:22.480Z,26.98
2018-04-02T22:51:49.611Z,22.23
2018-04-02T22:54:16.747Z,22.33
2018-04-02T22:56:44.477Z,24.27
2018-04-02T22:59:11.289Z,25.42
2018-04-02T23:01:38.642Z,22.77
2018-04-02T23:04:05.788Z,25.25
2018-04-02T23:06:33.058Z,24.48
2018-04-02T23:09:00.560Z,26.58
2018-04-02T23:11:28.254Z,25.17
2018-04-02T23:13:55.011Z,21.67
2018-04-02T23:16:22.331Z,21.27
2018-04-02T23:18:49.384Z,25.23
2018-04-02T23:21:16.089Z,23.95
2018-04-02T23:23:43.214Z,26.23
2018-04-02T23:26:10.356Z,22.98
2018-04-02T23:28:37.568Z,27.42
2018-04-02T23:31:04.743Z,22.87
2018-04-02T23:33:32.185Z,21.10
2018-04-02T23:35:59.854Z,21.30
2018-04-02T23:38:26.893Z,20.08
2018-04-02T23:40:54.239Z,19.00
2018-04-02T23:43:21.811Z,18.65
2018-04-02T23:45:48.858Z,18.87
2018-04-02T23:48:17.174Z,18.50
2018-04-02T23:50:44.583Z,20.67
2018-04-02T23:53:11.712Z,20.75
2018-04-02T23:55:39.387Z,21.20
2018-04-02T23:58:06.303Z,22.45
